createdAt,value
2022-09-25T00:01:26.012Z,11.58
2022-09-25T00:03:54.034Z,11.23
2022-09-25T00:06:24.442Z,11.61
2022-09-25T00:08:54.374Z,11.62
2022-09-25T00:11:24.000Z,11.44
2022-09-25T00:13:52.593Z,11.59
2022-09-25T00:16:23.031Z,11.46
2022-09-25T00:19:09.433Z,11.46
2022-09-25T00:21:38.386Z,11.51
2022-09-25T00:24:10.583Z,11.49
2022-09-25T00:26:40.686Z,11.45
2022-09-25T00:29:11.633Z,11.41
2022-09-25T00:31:39.648Z,11.38
2022-09-25T00:34:07.652Z,11.35
2022-09-25T00:36:36.869Z,11.36
2022-09-25T00:39:05.104Z,11.38
2022-09-25T00:41:35.422Z,11.37
2022-09-25T00:44:05.502Z,11.32
2022-09-25T00:46:36.768Z,11.34
2022-09-25T00:49:08.115Z,11.31
2022-09-25T00:51:41.372Z,11.28
2022-09-25T00:54:14.678Z,11.23
2022-09-25T00:56:46.100Z,11.21
2022-09-25T00:59:18.066Z,11.21
2022-09-25T01:01:46.722Z,11.20
2022-09-25T01:04:15.434Z,11.18
2022-09-25T01:06:43.626Z,11.14
2022-09-25T01:09:11.886Z,11.14
2022-09-25T01:11:40.770Z,11.15
2022-09-25T01:14:11.266Z,11.15
2022-09-25T01:16:45.330Z,11.17
2022-09-25T01:19:26.564Z,10.94
2022-09-25T01:21:58.562Z,11.12
2022-09-25T01:25:03.764Z,11.06
2022-09-25T01:27:47.510Z,11.11
2022-09-25T01:30:19.314Z,11.11
2022-09-25T01:32:57.722Z,11.08
2022-09-25T01:35:37.742Z,11.06
2022-09-25T01:38:15.422Z,10.99
2022-09-25T01:40:49.625Z,11.01
2022-09-25T01:43:21.534Z,11.00
2022-09-25T01:45:54.264Z,10.90
2022-09-25T01:48:27.317Z,10.99
2022-09-25T01:51:00.674Z,10.97
2022-09-25T01:53:37.906Z,10.79
2022-09-25T01:56:10.454Z,10.97
2022-09-25T01:58:47.761Z,10.96
2022-09-25T02:01:23.784Z,10.93
2022-09-25T02:03:57.992Z,10.90
2022-09-25T02:06:29.953Z,10.87
2022-09-25T02:09:03.517Z,10.86
2022-09-25T02:11:37.743Z,10.75
2022-09-25T02:14:13.631Z,10.80
2022-09-25T02:16:44.488Z,10.77
2022-09-25T02:19:32.763Z,10.70
2022-09-25T02:22:06.354Z,10.74
2022-09-25T02:24:39.559Z,10.73
2022-09-25T02:27:07.765Z,10.72
2022-09-25T02:29:36.305Z,10.72
2022-09-25T02:32:09.869Z,10.73
2022-09-25T02:34:38.153Z,10.69
2022-09-25T02:37:11.656Z,10.77
2022-09-25T02:39:40.678Z,10.31
2022-09-25T02:42:32.810Z,10.72
2022-09-25T02:45:10.010Z,10.50
2022-09-25T02:47:46.081Z,10.70
2022-09-25T02:50:21.416Z,10.73
2022-09-25T02:52:58.342Z,10.40
2022-09-25T02:55:34.277Z,10.73
2022-09-25T02:58:08.323Z,10.73
2022-09-25T03:00:38.807Z,10.71
2022-09-25T03:03:11.542Z,10.70
2022-09-25T03:05:39.936Z,10.71
2022-09-25T03:08:25.804Z,10.68
2022-09-25T03:10:54.076Z,10.66
2022-09-25T03:13:26.654Z,10.35
2022-09-25T03:15:59.028Z,10.64
2022-09-25T03:18:29.752Z,10.64
2022-09-25T03:20:57.565Z,10.60
2022-09-25T03:23:26.354Z,10.45
2022-09-25T03:25:55.925Z,10.53
2022-09-25T03:28:24.761Z,10.41
2022-09-25T03:31:01.564Z,10.46
2022-09-25T03:33:34.541Z,10.42
2022-09-25T03:36:07.764Z,9.68
2022-09-25T03:38:35.681Z,9.90
2022-09-25T03:41:06.768Z,10.33
2022-09-25T03:43:36.758Z,10.30
2022-09-25T03:46:04.991Z,10.25
2022-09-25T03:48:35.147Z,9.58
2022-09-25T03:51:04.047Z,10.16
2022-09-25T03:53:33.484Z,10.11
2022-09-25T03:56:01.914Z,10.08
2022-09-25T03:58:30.631Z,9.76
2022-09-25T04:00:59.070Z,9.84
2022-09-25T04:03:29.069Z,10.01
2022-09-25T04:06:00.149Z,9.73
2022-09-25T04:08:29.342Z,9.77
2022-09-25T04:10:59.441Z,10.01
2022-09-25T04:13:30.166Z,9.99
2022-09-25T04:15:59.215Z,9.97
2022-09-25T04:18:28.232Z,9.88
2022-09-25T04:20:56.513Z,9.89
2022-09-25T04:23:25.887Z,9.87
2022-09-25T04:25:53.767Z,9.76
2022-09-25T04:28:23.487Z,9.81
2022-09-25T04:30:52.156Z,9.77
2022-09-25T04:33:38.329Z,9.83
2022-09-25T04:36:06.720Z,9.84
2022-09-25T04:38:36.098Z,9.84
2022-09-25T04:41:05.801Z,9.79
2022-09-25T04:43:35.383Z,9.72
2022-09-25T04:46:03.963Z,9.74
2022-09-25T04:48:32.811Z,9.83
2022-09-25T04:51:00.951Z,9.84
2022-09-25T04:53:30.485Z,9.81
2022-09-25T04:56:04.025Z,9.70
2022-09-25T04:58:32.150Z,9.76
2022-09-25T05:01:04.076Z,9.82
2022-09-25T05:03:32.336Z,9.81
2022-09-25T05:06:00.236Z,9.76
2022-09-25T05:08:28.417Z,9.84
2022-09-25T05:10:56.521Z,9.85
2022-09-25T05:13:25.766Z,9.75
2022-09-25T05:15:56.011Z,9.89
2022-09-25T05:18:25.289Z,9.80
2022-09-25T05:20:54.319Z,9.98
2022-09-25T05:23:23.561Z,9.99
2022-09-25T05:25:55.264Z,9.96
2022-09-25T05:28:23.676Z,10.05
2022-09-25T05:30:53.574Z,10.08
2022-09-25T05:33:21.657Z,10.13
2022-09-25T05:35:49.658Z,10.16
2022-09-25T05:38:17.529Z,10.20
2022-09-25T05:40:45.584Z,10.22
2022-09-25T05:43:13.607Z,10.26
2022-09-25T05:45:41.632Z,10.33
2022-09-25T05:48:11.171Z,10.36
2022-09-25T05:50:39.125Z,10.31
2022-09-25T05:53:07.033Z,10.47
2022-09-25T05:55:35.268Z,10.48
2022-09-25T05:58:04.162Z,10.57
2022-09-25T06:00:33.293Z,10.31
2022-09-25T06:03:01.670Z,10.62
2022-09-25T06:05:31.299Z,10.69
2022-09-25T06:07:59.258Z,10.75
2022-09-25T06:10:27.791Z,10.69
2022-09-25T06:12:58.997Z,10.84
2022-09-25T06:15:27.879Z,10.86
2022-09-25T06:17:56.294Z,10.99
2022-09-25T06:20:25.153Z,11.03
2022-09-25T06:22:55.126Z,11.01
2022-09-25T06:25:24.768Z,11.11
2022-09-25T06:27:54.240Z,11.11
2022-09-25T06:30:22.366Z,10.94
2022-09-25T06:32:51.685Z,11.22
2022-09-25T06:35:19.595Z,11.22
2022-09-25T06:37:47.475Z,11.21
2022-09-25T06:40:17.333Z,11.23
2022-09-25T06:42:46.362Z,11.30
2022-09-25T06:45:14.346Z,11.45
2022-09-25T06:47:42.596Z,11.56
2022-09-25T06:50:12.358Z,11.59
2022-09-25T06:52:43.867Z,11.58
2022-09-25T06:55:12.447Z,11.62
2022-09-25T06:57:41.651Z,11.67
2022-09-25T07:00:10.887Z,11.60
2022-09-25T07:02:56.434Z,11.61
2022-09-25T07:05:24.575Z,11.77
2022-09-25T07:07:52.551Z,11.86
2022-09-25T07:10:20.532Z,11.94
2022-09-25T07:12:49.786Z,11.90
2022-09-25T07:15:18.786Z,12.07
2022-09-25T07:17:47.098Z,12.15
2022-09-25T07:20:15.420Z,12.14
2022-09-25T07:22:43.857Z,12.06
2022-09-25T07:25:13.720Z,12.09
2022-09-25T07:27:41.665Z,12.10
2022-09-25T07:30:12.157Z,12.12
2022-09-25T07:32:40.127Z,12.19
2022-09-25T07:35:08.850Z,12.29
2022-09-25T07:37:37.247Z,12.36
2022-09-25T07:40:05.756Z,12.46
2022-09-25T07:42:33.686Z,12.55
2022-09-25T07:45:01.580Z,12.88
2022-09-25T07:47:30.766Z,13.06
2022-09-25T07:49:58.837Z,13.28
2022-09-25T07:52:26.984Z,13.30
2022-09-25T07:54:54.864Z,13.28
2022-09-25T07:57:22.931Z,13.03
2022-09-25T07:59:50.910Z,13.41
2022-09-25T08:02:18.840Z,13.11
2022-09-25T08:04:48.450Z,13.61
2022-09-25T08:07:16.437Z,13.72
2022-09-25T08:09:44.241Z,13.78
2022-09-25T08:12:14.121Z,13.69
2022-09-25T08:14:42.880Z,13.75
2022-09-25T08:17:10.742Z,13.86
2022-09-25T08:19:38.655Z,13.93
2022-09-25T08:22:07.983Z,14.24
2022-09-25T08:24:35.902Z,14.38
2022-09-25T08:27:03.931Z,14.44
2022-09-25T08:29:31.938Z,14.59
2022-09-25T08:31:59.825Z,14.54
2022-09-25T08:34:40.534Z,15.04
2022-09-25T08:37:10.338Z,15.97
2022-09-25T08:39:38.330Z,16.60
2022-09-25T08:42:06.744Z,17.04
2022-09-25T08:44:38.987Z,17.36
2022-09-25T08:47:33.317Z,18.05
2022-09-25T08:50:08.162Z,18.74
2022-09-25T08:52:41.321Z,19.08
2022-09-25T08:55:14.792Z,19.05
2022-09-25T08:57:45.458Z,17.82
2022-09-25T09:00:20.226Z,18.73
2022-09-25T09:02:56.204Z,19.71
2022-09-25T09:05:29.269Z,20.17
2022-09-25T09:08:03.623Z,20.27
2022-09-25T09:10:36.430Z,20.60
2022-09-25T09:13:15.801Z,20.19
2022-09-25T09:15:50.709Z,20.55
2022-09-25T09:18:23.578Z,21.18
2022-09-25T09:20:54.677Z,21.01
2022-09-25T09:23:25.731Z,19.87
2022-09-25T09:26:17.132Z,19.69
2022-09-25T09:29:07.529Z,19.80
2022-09-25T09:31:44.832Z,19.62
2022-09-25T09:34:53.522Z,19.86
2022-09-25T09:37:31.697Z,19.91
2022-09-25T09:40:17.990Z,19.47
2022-09-25T09:42:53.776Z,19.11
2022-09-25T09:45:28.894Z,19.74
2022-09-25T09:48:06.413Z,20.41
2022-09-25T09:50:43.895Z,21.51
2022-09-25T09:53:22.264Z,21.95
2022-09-25T09:55:55.204Z,21.71
2022-09-25T09:58:29.198Z,20.67
2022-09-25T10:01:01.075Z,20.02
2022-09-25T10:03:39.336Z,19.44
2022-09-25T10:06:12.662Z,19.19
2022-09-25T10:08:42.226Z,18.78
2022-09-25T10:11:17.515Z,18.56
2022-09-25T10:13:46.399Z,18.64
2022-09-25T10:16:17.357Z,18.59
2022-09-25T10:18:49.634Z,18.66
2022-09-25T10:21:21.349Z,18.94
2022-09-25T10:23:50.943Z,19.07
2022-09-25T10:26:29.004Z,18.54
2022-09-25T10:28:58.785Z,18.80
2022-09-25T10:31:29.891Z,18.69
2022-09-25T10:34:07.839Z,18.93
2022-09-25T10:36:40.007Z,19.27
2022-09-25T10:39:43.521Z,19.22
2022-09-25T10:42:37.291Z,18.94
2022-09-25T10:45:27.889Z,18.59
2022-09-25T10:48:09.734Z,18.60
2022-09-25T10:50:38.259Z,18.52
2022-09-25T10:53:07.727Z,18.57
2022-09-25T10:55:37.690Z,18.72
2022-09-25T10:58:21.406Z,18.92
2022-09-25T11:00:55.858Z,18.62
2022-09-25T11:03:26.557Z,19.14
2022-09-25T11:05:56.511Z,19.26
2022-09-25T11:08:30.250Z,19.42
2022-09-25T11:10:59.785Z,19.67
2022-09-25T11:13:37.176Z,19.20
2022-09-25T11:16:09.582Z,19.57
2022-09-25T11:18:41.162Z,20.07
2022-09-25T11:21:20.546Z,20.96
2022-09-25T11:24:04.733Z,21.58
2022-09-25T11:26:37.768Z,21.80
2022-09-25T11:29:16.823Z,21.79
2022-09-25T11:31:50.314Z,22.11
2022-09-25T11:34:33.794Z,21.51
2022-09-25T11:37:07.709Z,21.77
2022-09-25T11:40:01.277Z,21.64
2022-09-25T11:42:35.075Z,21.61
2022-09-25T11:45:09.392Z,21.64
2022-09-25T11:47:44.566Z,21.42
2022-09-25T11:50:16.555Z,20.92
2022-09-25T11:52:54.399Z,20.50
2022-09-25T11:55:47.183Z,19.99
2022-09-25T11:58:30.155Z,20.21
2022-09-25T12:01:08.366Z,20.74
2022-09-25T12:03:52.166Z,21.14
2022-09-25T12:06:38.415Z,21.20
2022-09-25T12:09:28.146Z,22.07
2022-09-25T12:12:03.527Z,21.99
2022-09-25T12:14:40.271Z,21.68
2022-09-25T12:17:18.670Z,21.14
2022-09-25T12:19:55.738Z,20.35
2022-09-25T12:22:36.057Z,20.56
2022-09-25T12:25:13.785Z,21.36
2022-09-25T12:27:51.196Z,21.93
2022-09-25T12:30:21.464Z,22.23
2022-09-25T12:33:16.837Z,22.81
2022-09-25T12:35:50.411Z,23.01
2022-09-25T12:38:27.460Z,22.96
2022-09-25T12:41:02.897Z,22.93
2022-09-25T12:43:36.668Z,22.61
2022-09-25T12:46:15.069Z,22.55
2022-09-25T12:48:50.644Z,22.76
2022-09-25T12:51:23.795Z,22.24
2022-09-25T12:53:57.112Z,21.86
2022-09-25T12:56:30.218Z,21.00
2022-09-25T12:59:05.983Z,20.52
2022-09-25T13:01:41.447Z,20.17
2022-09-25T13:04:34.066Z,19.98
2022-09-25T13:07:10.842Z,19.90
2022-09-25T13:09:45.092Z,19.75
2022-09-25T13:12:33.227Z,21.13
2022-09-25T13:15:06.989Z,21.81
2022-09-25T13:17:35.762Z,21.35
2022-09-25T13:20:42.486Z,21.47
2022-09-25T13:23:15.148Z,20.56
2022-09-25T13:25:46.640Z,20.07
2022-09-25T13:28:21.539Z,19.45
2022-09-25T13:31:09.228Z,19.18
2022-09-25T13:33:49.498Z,18.93
2022-09-25T13:36:47.973Z,18.63
2022-09-25T13:39:40.064Z,18.47
2022-09-25T13:42:14.271Z,18.32
2022-09-25T13:45:26.187Z,18.12
2022-09-25T13:48:36.179Z,18.10
2022-09-25T13:51:34.569Z,19.46
2022-09-25T13:54:05.309Z,21.06
2022-09-25T13:56:59.218Z,22.54
2022-09-25T13:59:38.632Z,23.20
2022-09-25T14:02:49.277Z,24.05
2022-09-25T14:05:21.243Z,24.50
2022-09-25T14:07:54.914Z,24.25
2022-09-25T14:10:24.092Z,25.11
2022-09-25T14:12:54.206Z,25.50
2022-09-25T14:15:26.949Z,26.25
2022-09-25T14:17:57.313Z,26.46
2022-09-25T14:20:37.038Z,25.84
2022-09-25T14:23:08.437Z,25.54
2022-09-25T14:25:39.166Z,25.56
2022-09-25T14:28:20.944Z,25.00
2022-09-25T14:31:04.509Z,25.10
2022-09-25T14:34:04.165Z,25.38
2022-09-25T14:36:42.097Z,25.55
2022-09-25T14:39:26.355Z,25.78
2022-09-25T14:42:23.641Z,26.09
2022-09-25T14:45:18.026Z,25.51
2022-09-25T14:47:49.524Z,25.42
2022-09-25T14:50:23.411Z,24.64
2022-09-25T14:52:55.758Z,24.17
2022-09-25T14:55:24.646Z,24.02
2022-09-25T14:57:53.033Z,23.65
2022-09-25T15:00:24.678Z,23.78
2022-09-25T15:02:55.741Z,23.65
2022-09-25T15:05:32.978Z,23.24
2022-09-25T15:08:03.185Z,22.42
2022-09-25T15:10:34.313Z,21.67
2022-09-25T15:13:15.876Z,21.24
2022-09-25T15:16:07.472Z,20.44
2022-09-25T15:18:38.640Z,19.75
2022-09-25T15:21:09.807Z,19.50
2022-09-25T15:23:38.988Z,18.99
2022-09-25T15:26:08.956Z,18.66
2022-09-25T15:28:40.246Z,18.39
2022-09-25T15:31:09.603Z,18.05
2022-09-25T15:33:39.131Z,17.75
2022-09-25T15:36:17.002Z,17.55
2022-09-25T15:38:45.136Z,17.31
2022-09-25T15:41:16.482Z,17.09
2022-09-25T15:43:44.534Z,17.07
2022-09-25T15:46:37.893Z,16.90
2022-09-25T15:49:07.074Z,16.83
2022-09-25T15:51:37.221Z,16.77
2022-09-25T15:54:20.182Z,16.54
2022-09-25T15:56:52.112Z,16.44
2022-09-25T15:59:23.024Z,16.23
2022-09-25T16:02:10.574Z,16.12
2022-09-25T16:04:49.554Z,15.72
2022-09-25T16:07:26.194Z,15.79
2022-09-25T16:09:56.748Z,15.71
2022-09-25T16:12:29.814Z,15.60
2022-09-25T16:14:59.537Z,15.44
2022-09-25T16:17:33.575Z,15.22
2022-09-25T16:20:09.036Z,15.15
2022-09-25T16:22:42.801Z,15.23
2022-09-25T16:25:21.341Z,15.18
2022-09-25T16:27:49.753Z,14.24
2022-09-25T16:30:20.729Z,14.82
2022-09-25T16:32:52.506Z,14.88
2022-09-25T16:35:57.441Z,14.84
2022-09-25T16:38:28.952Z,14.78
2022-09-25T16:41:05.290Z,14.72
2022-09-25T16:43:35.759Z,14.65
2022-09-25T16:46:05.957Z,14.54
2022-09-25T16:48:39.701Z,14.43
2022-09-25T16:51:12.260Z,14.34
2022-09-25T16:53:40.594Z,14.31
2022-09-25T16:56:08.432Z,14.27
2022-09-25T16:58:37.501Z,14.23
2022-09-25T17:01:05.759Z,14.00
2022-09-25T17:03:49.890Z,13.84
2022-09-25T17:06:19.614Z,14.04
2022-09-25T17:08:48.307Z,13.86
2022-09-25T17:11:17.682Z,13.81
2022-09-25T17:13:46.759Z,13.73
2022-09-25T17:16:14.819Z,13.71
2022-09-25T17:18:43.175Z,13.72
2022-09-25T17:21:15.240Z,13.23
2022-09-25T17:23:45.229Z,13.39
2022-09-25T17:26:18.969Z,13.46
2022-09-25T17:28:47.210Z,13.41
2022-09-25T17:31:18.339Z,13.49
2022-09-25T17:33:46.318Z,13.44
2022-09-25T17:36:14.812Z,13.29
2022-09-25T17:38:44.359Z,13.29
2022-09-25T17:41:20.518Z,13.30
2022-09-25T17:43:49.517Z,13.35
2022-09-25T17:46:21.481Z,13.31
2022-09-25T17:48:54.271Z,13.25
2022-09-25T17:51:24.687Z,13.13
2022-09-25T17:53:56.039Z,13.19
2022-09-25T17:56:24.802Z,13.01
2022-09-25T17:58:55.059Z,12.87
2022-09-25T18:01:24.648Z,13.12
2022-09-25T18:03:53.774Z,13.09
2022-09-25T18:06:22.105Z,13.04
2022-09-25T18:08:50.993Z,12.83
2022-09-25T18:11:20.680Z,13.01
2022-09-25T18:13:48.983Z,12.97
2022-09-25T18:16:20.666Z,12.94
2022-09-25T18:19:06.593Z,12.78
2022-09-25T18:21:48.389Z,12.88
2022-09-25T18:24:16.703Z,12.81
2022-09-25T18:26:46.698Z,12.84
2022-09-25T18:29:16.954Z,12.81
2022-09-25T18:31:46.612Z,12.71
2022-09-25T18:34:14.599Z,12.75
2022-09-25T18:36:42.973Z,12.73
2022-09-25T18:39:14.853Z,12.70
2022-09-25T18:41:47.925Z,12.40
2022-09-25T18:44:17.920Z,12.66
2022-09-25T18:46:46.030Z,12.63
2022-09-25T18:49:14.161Z,12.31
2022-09-25T18:51:42.271Z,12.59
2022-09-25T18:54:13.808Z,12.51
2022-09-25T18:56:41.994Z,12.48
2022-09-25T18:59:11.459Z,12.54
2022-09-25T19:01:41.063Z,12.53
2022-09-25T19:04:10.014Z,12.51
2022-09-25T19:06:38.159Z,12.48
2022-09-25T19:09:06.071Z,12.38
2022-09-25T19:11:34.015Z,12.39
2022-09-25T19:14:04.950Z,12.45
2022-09-25T19:16:37.991Z,12.44
2022-09-25T19:19:06.350Z,12.41
2022-09-25T19:21:34.272Z,12.35
2022-09-25T19:24:02.785Z,12.32
2022-09-25T19:26:31.163Z,12.32
2022-09-25T19:28:59.079Z,12.30
2022-09-25T19:31:28.238Z,12.18
2022-09-25T19:33:58.125Z,12.28
2022-09-25T19:36:30.278Z,12.26
2022-09-25T19:38:59.654Z,12.04
2022-09-25T19:41:29.904Z,12.14
2022-09-25T19:44:00.459Z,12.21
2022-09-25T19:46:29.771Z,12.20
2022-09-25T19:48:59.556Z,12.13
2022-09-25T19:51:27.893Z,12.16
2022-09-25T19:53:55.847Z,12.08
2022-09-25T19:56:24.843Z,11.36
2022-09-25T19:58:52.826Z,12.14
2022-09-25T20:01:23.231Z,11.86
2022-09-25T20:03:51.435Z,12.12
2022-09-25T20:06:21.038Z,12.12
2022-09-25T20:08:48.903Z,11.98
2022-09-25T20:11:18.924Z,12.08
2022-09-25T20:13:48.222Z,12.07
2022-09-25T20:16:18.146Z,11.73
2022-09-25T20:18:49.067Z,12.05
2022-09-25T20:21:17.723Z,11.63
2022-09-25T20:23:51.086Z,11.89
2022-09-25T20:26:20.008Z,12.00
2022-09-25T20:28:48.082Z,11.99
2022-09-25T20:31:16.929Z,11.79
2022-09-25T20:33:45.016Z,12.01
2022-09-25T20:36:15.247Z,11.97
2022-09-25T20:38:44.350Z,11.94
2022-09-25T20:41:14.477Z,11.81
2022-09-25T20:43:44.177Z,11.90
2022-09-25T20:46:14.076Z,11.90
2022-09-25T20:48:45.655Z,11.88
2022-09-25T20:51:16.175Z,11.88
2022-09-25T20:53:44.543Z,11.87
2022-09-25T20:56:15.977Z,11.87
2022-09-25T20:58:47.386Z,11.87
2022-09-25T21:01:18.943Z,11.87
2022-09-25T21:03:49.354Z,11.84
2022-09-25T21:06:18.525Z,11.84
2022-09-25T21:08:47.398Z,11.62
2022-09-25T21:11:16.706Z,11.85
2022-09-25T21:13:44.533Z,11.84
2022-09-25T21:16:14.325Z,11.84
2022-09-25T21:18:43.539Z,11.85
2022-09-25T21:21:13.893Z,11.84
2022-09-25T21:23:43.209Z,11.83
2022-09-25T21:26:13.717Z,11.82
2022-09-25T21:28:43.943Z,11.81
2022-09-25T21:31:14.563Z,11.74
2022-09-25T21:33:42.806Z,11.77
2022-09-25T21:36:11.338Z,11.78
2022-09-25T21:38:40.912Z,11.62
2022-09-25T21:41:10.650Z,11.80
2022-09-25T21:43:39.041Z,11.82
2022-09-25T21:46:13.072Z,11.85
2022-09-25T21:48:44.885Z,11.89
2022-09-25T21:51:14.727Z,11.93
2022-09-25T21:53:42.875Z,11.65
2022-09-25T21:56:12.267Z,11.70
2022-09-25T21:58:40.603Z,12.05
2022-09-25T22:01:12.764Z,12.08
2022-09-25T22:03:42.567Z,12.10
2022-09-25T22:06:12.484Z,12.14
2022-09-25T22:08:42.936Z,11.94
2022-09-25T22:11:12.281Z,12.11
2022-09-25T22:13:42.066Z,12.09
2022-09-25T22:16:15.601Z,12.06
2022-09-25T22:18:45.497Z,12.03
2022-09-25T22:21:14.553Z,12.00
2022-09-25T22:23:43.393Z,11.99
2022-09-25T22:26:12.067Z,11.99
2022-09-25T22:28:39.993Z,11.99
2022-09-25T22:31:09.672Z,11.96
2022-09-25T22:33:39.391Z,11.95
2022-09-25T22:36:09.382Z,11.94
2022-09-25T22:38:37.967Z,11.83
2022-09-25T22:41:07.715Z,11.86
2022-09-25T22:43:36.221Z,11.93
2022-09-25T22:46:04.954Z,11.84
2022-09-25T22:48:33.040Z,11.95
2022-09-25T22:51:04.169Z,11.95
2022-09-25T22:53:34.513Z,12.00
2022-09-25T22:56:10.467Z,11.80
2022-09-25T22:58:38.516Z,12.09
2022-09-25T23:01:08.375Z,12.13
2022-09-25T23:03:36.395Z,12.13
2022-09-25T23:06:06.001Z,12.14
2022-09-25T23:08:34.006Z,12.13
2022-09-25T23:11:07.522Z,12.20
2022-09-25T23:13:37.068Z,12.22
2022-09-25T23:16:07.059Z,12.25
2022-09-25T23:18:36.132Z,12.24
2022-09-25T23:21:06.496Z,12.13
2022-09-25T23:23:34.366Z,12.06
2022-09-25T23:26:06.254Z,11.92
2022-09-25T23:28:35.266Z,11.42
2022-09-25T23:31:11.719Z,11.71
2022-09-25T23:33:40.847Z,11.58
2022-09-25T23:36:12.698Z,11.49
2022-09-25T23:38:40.950Z,11.32
2022-09-25T23:41:16.322Z,11.34
2022-09-25T23:43:45.187Z,11.28
2022-09-25T23:46:13.991Z,11.11
2022-09-25T23:48:42.049Z,11.17
2022-09-25T23:51:11.929Z,11.15
2022-09-25T23:53:40.887Z,10.85
2022-09-25T23:56:09.995Z,11.01
2022-09-25T23:58:37.941Z,11.07
